createdAt,value
2023-05-02T00:00:31.266Z,31.01
2023-05-02T00:01:31.407Z,29.98
2023-05-02T00:02:31.535Z,31.56
2023-05-02T00:03:31.518Z,30.82
2023-05-02T00:04:31.528Z,28.07
2023-05-02T00:05:31.551Z,28.33
2023-05-02T00:06:31.742Z,27.03
2023-05-02T00:07:31.756Z,32.85
2023-05-02T00:08:31.739Z,27.89
2023-05-02T00:09:31.977Z,29.86
2023-05-02T00:10:31.866Z,30.17
2023-05-02T00:11:31.907Z,32.02
2023-05-02T00:12:31.981Z,29.59
2023-05-02T00:13:32.031Z,33.96
2023-05-02T00:14:32.091Z,31.83
2023-05-02T00:15:32.154Z,29.78
2023-05-02T00:16:32.290Z,32.58
2023-05-02T00:17:32.505Z,29.41
2023-05-02T00:18:32.332Z,30.41
2023-05-02T00:19:32.380Z,31.14
2023-05-02T00:20:32.445Z,31.38
2023-05-02T00:21:32.496Z,31.23
2023-05-02T00:22:32.535Z,32.60
2023-05-02T00:23:32.602Z,27.37
2023-05-02T00:24:32.645Z,30.06
2023-05-02T00:25:32.716Z,27.00
2023-05-02T00:26:32.773Z,30.97
2023-05-02T00:27:32.855Z,27.83
2023-05-02T00:28:32.895Z,32.23
2023-05-02T00:29:32.948Z,30.58
2023-05-02T00:30:33.993Z,27.91
2023-05-02T00:31:33.108Z,30.09
2023-05-02T00:32:33.144Z,31.09
2023-05-02T00:33:33.180Z,30.35
2023-05-02T00:34:33.980Z,29.84
2023-05-02T00:35:33.297Z,30.45
2023-05-02T00:36:33.343Z,29.55
2023-05-02T00:37:33.390Z,27.46
2023-05-02T00:38:33.406Z,30.74
2023-05-02T00:39:33.416Z,27.59
2023-05-02T00:40:33.395Z,26.34
2023-05-02T00:41:33.422Z,26.54
2023-05-02T00:42:33.395Z,27.35
2023-05-02T00:43:33.411Z,31.24
2023-05-02T00:44:33.393Z,29.12
2023-05-02T00:45:33.374Z,28.80
2023-05-02T00:46:33.402Z,29.78
2023-05-02T00:47:33.426Z,29.94
2023-05-02T00:48:33.383Z,29.39
2023-05-02T00:49:33.443Z,26.80
2023-05-02T00:50:33.362Z,28.08
2023-05-02T00:51:33.347Z,27.71
2023-05-02T00:52:33.333Z,28.78
2023-05-02T00:53:33.325Z,28.35
2023-05-02T00:54:33.318Z,26.94
2023-05-02T00:55:33.295Z,26.30
2023-05-02T00:56:33.288Z,27.76
2023-05-02T00:57:33.993Z,30.64
2023-05-02T00:58:33.270Z,32.35
2023-05-02T00:59:33.256Z,29.66
2023-05-02T01:00:33.251Z,30.43
2023-05-02T01:01:33.537Z,29.68
2023-05-02T01:02:33.332Z,32.57
2023-05-02T01:03:33.348Z,29.52
2023-05-02T01:04:33.232Z,32.13
2023-05-02T01:05:33.288Z,27.48
2023-05-02T01:06:33.239Z,31.13
2023-05-02T01:07:34.071Z,29.43
2023-05-02T01:08:33.208Z,28.39
2023-05-02T01:09:33.501Z,28.00
2023-05-02T01:10:33.204Z,28.25
2023-05-02T01:11:33.201Z,30.33
2023-05-02T01:12:33.994Z,30.73
2023-05-02T01:13:33.180Z,31.08
2023-05-02T01:14:33.171Z,29.35
2023-05-02T01:15:33.158Z,29.32
2023-05-02T01:16:33.194Z,26.44
2023-05-02T01:17:33.159Z,30.23
2023-05-02T01:18:33.138Z,29.87
2023-05-02T01:19:33.149Z,29.41
2023-05-02T01:20:33.150Z,25.51
2023-05-02T01:21:33.190Z,33.46
2023-05-02T01:22:33.195Z,26.09
2023-05-02T01:23:33.216Z,27.08
2023-05-02T01:24:33.223Z,31.29
2023-05-02T01:25:33.237Z,25.35
2023-05-02T01:26:33.270Z,29.62
2023-05-02T01:27:33.250Z,29.62
2023-05-02T01:28:33.239Z,29.91
2023-05-02T01:29:33.238Z,31.30
2023-05-02T01:30:34.006Z,33.10
2023-05-02T01:31:33.325Z,29.92
2023-05-02T01:32:33.272Z,30.93
2023-05-02T01:33:33.246Z,30.34
2023-05-02T01:34:33.359Z,29.59
2023-05-02T01:35:33.298Z,31.37
2023-05-02T01:36:33.358Z,35.07
2023-05-02T01:37:33.299Z,32.02
2023-05-02T01:38:33.294Z,30.27
2023-05-02T01:39:33.342Z,30.79
2023-05-02T01:40:33.351Z,27.75
2023-05-02T01:41:33.330Z,31.09
2023-05-02T01:42:33.346Z,33.48
2023-05-02T01:43:33.353Z,25.93
2023-05-02T01:44:33.375Z,30.64
2023-05-02T01:45:33.416Z,29.28
2023-05-02T01:46:33.435Z,29.70
2023-05-02T01:47:33.412Z,29.67
2023-05-02T01:48:33.380Z,30.16
2023-05-02T01:49:33.387Z,30.34
2023-05-02T01:50:33.373Z,34.17
2023-05-02T01:51:33.382Z,32.12
2023-05-02T01:52:33.370Z,33.01
2023-05-02T01:53:33.376Z,33.29
2023-05-02T01:54:33.377Z,31.67
2023-05-02T01:55:33.368Z,28.90
2023-05-02T01:56:33.354Z,30.36
2023-05-02T01:57:33.356Z,30.95
2023-05-02T01:58:33.414Z,30.05
2023-05-02T01:59:33.342Z,30.41
2023-05-02T02:00:33.348Z,29.68
2023-05-02T02:01:33.407Z,29.25
2023-05-02T02:02:33.319Z,28.18
2023-05-02T02:03:33.378Z,28.65
2023-05-02T02:04:33.358Z,28.77
2023-05-02T02:05:33.387Z,28.49
2023-05-02T02:06:33.346Z,25.00
2023-05-02T02:07:33.331Z,29.16
2023-05-02T02:08:33.345Z,31.13
2023-05-02T02:09:33.362Z,31.80
2023-05-02T02:10:33.386Z,28.22
2023-05-02T02:11:33.390Z,29.12
2023-05-02T02:12:33.386Z,33.26
2023-05-02T02:13:33.380Z,30.74
2023-05-02T02:14:33.387Z,31.61
2023-05-02T02:15:33.410Z,31.63
2023-05-02T02:16:33.452Z,32.26
2023-05-02T02:17:33.439Z,30.58
2023-05-02T02:18:33.404Z,31.95
2023-05-02T02:19:33.443Z,33.20
2023-05-02T02:20:33.437Z,32.47
2023-05-02T02:21:33.400Z,29.48
2023-05-02T02:22:33.397Z,30.96
2023-05-02T02:23:33.485Z,29.94
2023-05-02T02:24:33.395Z,29.59
2023-05-02T02:25:33.539Z,30.61
2023-05-02T02:26:33.412Z,30.09
2023-05-02T02:27:34.022Z,30.04
2023-05-02T02:28:33.405Z,27.89
2023-05-02T02:29:33.408Z,29.94
2023-05-02T02:30:33.583Z,31.84
2023-05-02T02:31:33.464Z,29.48
2023-05-02T02:32:33.442Z,30.55
2023-05-02T02:33:33.430Z,30.53
2023-05-02T02:34:33.488Z,30.80
2023-05-02T02:35:33.510Z,33.60
2023-05-02T02:36:33.422Z,31.06
2023-05-02T02:37:33.416Z,29.76
2023-05-02T02:38:33.556Z,33.00
2023-05-02T02:39:33.420Z,29.11
2023-05-02T02:40:33.411Z,28.27
2023-05-02T02:41:33.402Z,28.31
2023-05-02T02:42:33.402Z,28.94
2023-05-02T02:43:33.393Z,30.85
2023-05-02T02:44:33.393Z,29.69
2023-05-02T02:45:33.459Z,27.04
2023-05-02T02:46:33.383Z,28.71
2023-05-02T02:47:33.446Z,31.55
2023-05-02T02:48:33.448Z,31.73
2023-05-02T02:49:33.451Z,28.83
2023-05-02T02:50:33.373Z,31.70
2023-05-02T02:51:33.383Z,32.82
2023-05-02T02:52:33.375Z,29.59
2023-05-02T02:53:33.368Z,28.50
2023-05-02T02:54:33.398Z,28.74
2023-05-02T02:55:33.391Z,29.63
2023-05-02T02:56:33.381Z,27.90
2023-05-02T02:57:33.452Z,27.35
2023-05-02T02:58:33.367Z,29.36
2023-05-02T02:59:33.377Z,30.70
2023-05-02T03:00:33.373Z,28.57
2023-05-02T03:01:33.464Z,27.60
2023-05-02T03:02:33.578Z,29.61
2023-05-02T03:03:33.518Z,31.16
2023-05-02T03:04:33.356Z,31.89
2023-05-02T03:05:34.064Z,26.67
2023-05-02T03:06:33.426Z,28.75
2023-05-02T03:07:34.046Z,31.58
2023-05-02T03:08:33.393Z,29.14
2023-05-02T03:09:33.575Z,28.47
2023-05-02T03:10:33.410Z,30.63
2023-05-02T03:11:33.407Z,28.33
2023-05-02T03:12:33.453Z,30.67
2023-05-02T03:13:33.436Z,28.95
2023-05-02T03:14:33.406Z,29.40
2023-05-02T03:15:33.423Z,30.27
2023-05-02T03:16:33.513Z,31.61
2023-05-02T03:17:33.476Z,29.10
2023-05-02T03:18:33.437Z,31.43
2023-05-02T03:19:33.475Z,28.68
2023-05-02T03:20:33.561Z,30.26
2023-05-02T03:21:33.497Z,30.40
2023-05-02T03:22:33.496Z,31.36
2023-05-02T03:23:33.508Z,30.00
2023-05-02T03:24:33.514Z,29.07
2023-05-02T03:25:33.530Z,30.86
2023-05-02T03:26:33.644Z,27.16
2023-05-02T03:27:33.578Z,31.82
2023-05-02T03:28:33.608Z,31.10
2023-05-02T03:29:33.618Z,34.48
2023-05-02T03:30:33.636Z,30.52
2023-05-02T03:31:33.715Z,28.57
2023-05-02T03:32:33.767Z,27.97
2023-05-02T03:33:33.778Z,30.32
2023-05-02T03:34:33.779Z,28.58
2023-05-02T03:35:33.816Z,31.10
2023-05-02T03:36:33.854Z,29.92
2023-05-02T03:37:33.905Z,27.57
2023-05-02T03:38:33.953Z,30.50
2023-05-02T03:39:34.011Z,30.93
2023-05-02T03:40:34.033Z,32.02
2023-05-02T03:41:34.071Z,29.67
2023-05-02T03:42:34.116Z,29.59
2023-05-02T03:43:34.153Z,28.46
2023-05-02T03:44:34.202Z,32.30
2023-05-02T03:45:34.258Z,31.14
2023-05-02T03:46:34.418Z,31.15
2023-05-02T03:47:34.402Z,33.16
2023-05-02T03:48:34.414Z,29.24
2023-05-02T03:49:34.476Z,29.00
2023-05-02T03:50:34.535Z,27.73
2023-05-02T03:51:34.607Z,31.36
2023-05-02T03:52:34.648Z,26.72
2023-05-02T03:53:34.691Z,30.87
2023-05-02T03:54:34.763Z,31.39
2023-05-02T03:55:34.806Z,29.80
2023-05-02T03:56:34.870Z,31.01
2023-05-02T03:57:34.984Z,30.76
2023-05-02T03:58:34.982Z,27.19
2023-05-02T03:59:35.034Z,31.52
2023-05-02T04:00:35.091Z,31.96
2023-05-02T04:01:35.194Z,29.14
2023-05-02T04:02:35.307Z,29.69
2023-05-02T04:03:35.354Z,32.44
2023-05-02T04:04:35.382Z,31.38
2023-05-02T04:05:35.373Z,29.48
2023-05-02T04:06:35.573Z,34.23
2023-05-02T04:07:35.481Z,30.27
2023-05-02T04:08:35.519Z,31.22
2023-05-02T04:09:35.669Z,31.29
2023-05-02T04:10:35.636Z,30.03
2023-05-02T04:11:36.581Z,32.53
2023-05-02T04:12:35.743Z,30.51
2023-05-02T04:13:35.802Z,32.54
2023-05-02T04:14:35.862Z,27.98
2023-05-02T04:15:35.915Z,31.99
2023-05-02T04:16:35.994Z,27.52
2023-05-02T04:17:36.037Z,29.12
2023-05-02T04:18:36.067Z,31.18
2023-05-02T04:19:36.131Z,28.76
2023-05-02T04:20:36.187Z,30.41
2023-05-02T04:21:36.240Z,30.76
2023-05-02T04:22:36.288Z,26.21
2023-05-02T04:23:36.354Z,28.67
2023-05-02T04:24:36.403Z,30.26
2023-05-02T04:25:36.458Z,30.17
2023-05-02T04:26:36.498Z,30.11
2023-05-02T04:27:36.546Z,29.75
2023-05-02T04:28:36.601Z,31.69
2023-05-02T04:29:36.663Z,32.04
2023-05-02T04:30:36.767Z,28.30
2023-05-02T04:31:37.618Z,30.54
2023-05-02T04:32:36.823Z,31.06
2023-05-02T04:33:36.852Z,29.73
2023-05-02T04:34:36.896Z,31.02
2023-05-02T04:35:36.949Z,26.89
2023-05-02T04:36:36.997Z,31.85
2023-05-02T04:37:37.056Z,30.51
2023-05-02T04:38:37.104Z,27.64
2023-05-02T04:39:37.582Z,29.62
2023-05-02T04:40:37.209Z,29.37
2023-05-02T04:41:37.253Z,28.85
2023-05-02T04:42:37.318Z,30.86
2023-05-02T04:43:37.367Z,32.99
2023-05-02T04:44:37.423Z,30.90
2023-05-02T04:45:37.462Z,30.49
2023-05-02T04:46:37.564Z,31.87
2023-05-02T04:47:37.599Z,32.10
2023-05-02T04:48:37.615Z,31.65
2023-05-02T04:49:37.656Z,33.41
2023-05-02T04:50:37.716Z,32.91
2023-05-02T04:51:37.769Z,30.04
2023-05-02T04:52:37.815Z,28.77
2023-05-02T04:53:37.865Z,31.71
2023-05-02T04:54:37.921Z,31.56
2023-05-02T04:55:37.973Z,30.26
2023-05-02T04:56:38.032Z,30.54
2023-05-02T04:57:38.066Z,29.93
2023-05-02T04:58:38.120Z,27.85
2023-05-02T04:59:38.192Z,25.34
2023-05-02T05:00:38.238Z,28.22
2023-05-02T05:01:38.332Z,29.28
2023-05-02T05:02:38.426Z,33.11
2023-05-02T05:03:38.481Z,34.14
2023-05-02T05:04:38.482Z,30.78
2023-05-02T05:05:38.526Z,30.69
2023-05-02T05:06:38.597Z,27.66
2023-05-02T05:07:38.633Z,30.95
2023-05-02T05:08:38.683Z,31.48
2023-05-02T05:09:39.108Z,30.33
2023-05-02T05:10:38.783Z,30.60
2023-05-02T05:11:38.843Z,28.75
2023-05-02T05:12:38.921Z,29.72
2023-05-02T05:13:38.943Z,29.27
2023-05-02T05:14:39.063Z,32.97
2023-05-02T05:15:39.049Z,30.13
2023-05-02T05:16:39.183Z,30.12
2023-05-02T05:17:39.205Z,25.81
2023-05-02T05:18:39.210Z,29.55
2023-05-02T05:19:39.279Z,30.11
2023-05-02T05:20:39.327Z,29.11
2023-05-02T05:21:39.377Z,29.01
2023-05-02T05:22:39.428Z,26.95
2023-05-02T05:23:39.474Z,32.04
2023-05-02T05:24:39.527Z,33.06
2023-05-02T05:25:39.584Z,36.41
2023-05-02T05:26:39.641Z,39.70
2023-05-02T05:27:39.736Z,39.96
2023-05-02T05:28:39.757Z,39.58
2023-05-02T05:29:39.803Z,37.91
2023-05-02T05:30:39.854Z,44.16
2023-05-02T05:31:39.928Z,45.34
2023-05-02T05:32:39.966Z,46.91
2023-05-02T05:33:39.992Z,44.06
2023-05-02T05:34:40.016Z,43.60
2023-05-02T05:35:40.117Z,45.61
2023-05-02T05:36:40.150Z,46.53
2023-05-02T05:37:41.162Z,42.71
2023-05-02T05:38:40.229Z,43.38
2023-05-02T05:39:40.368Z,44.95
2023-05-02T05:40:41.062Z,46.86
2023-05-02T05:41:40.390Z,48.42
2023-05-02T05:42:40.450Z,49.30
2023-05-02T05:43:40.502Z,48.81
2023-05-02T05:44:40.561Z,47.78
2023-05-02T05:45:40.622Z,47.15
2023-05-02T05:46:40.726Z,50.43
2023-05-02T05:47:40.813Z,50.46
2023-05-02T05:48:40.847Z,46.82
2023-05-02T05:49:40.835Z,48.02
2023-05-02T05:50:40.887Z,46.40
2023-05-02T05:51:40.948Z,48.94
2023-05-02T05:52:41.017Z,47.23
2023-05-02T05:53:41.059Z,45.25
2023-05-02T05:54:41.113Z,49.55
2023-05-02T05:55:42.329Z,49.02
2023-05-02T05:56:41.227Z,48.05
2023-05-02T05:57:41.261Z,47.85
2023-05-02T05:58:41.404Z,47.80
2023-05-02T05:59:41.375Z,48.56
2023-05-02T06:00:41.421Z,49.52
2023-05-02T06:01:41.482Z,51.86
2023-05-02T06:02:42.257Z,43.72
2023-05-02T06:03:41.747Z,49.84
2023-05-02T06:04:41.673Z,48.12
2023-05-02T06:05:41.680Z,47.51
2023-05-02T06:06:41.755Z,48.46
2023-05-02T06:07:41.788Z,47.17
2023-05-02T06:08:41.837Z,50.44
2023-05-02T06:09:42.634Z,51.04
2023-05-02T06:10:41.945Z,50.22
2023-05-02T06:11:41.995Z,52.10
2023-05-02T06:12:42.049Z,54.44
2023-05-02T06:13:42.187Z,52.17
2023-05-02T06:14:42.180Z,51.08
2023-05-02T06:15:42.240Z,51.08
2023-05-02T06:16:42.513Z,48.97
2023-05-02T06:17:42.338Z,51.49
2023-05-02T06:18:42.414Z,53.31
2023-05-02T06:19:42.417Z,54.42
2023-05-02T06:20:42.471Z,47.52
2023-05-02T06:21:42.515Z,53.42
2023-05-02T06:22:42.624Z,51.22
2023-05-02T06:23:42.617Z,51.96
2023-05-02T06:24:42.676Z,51.84
2023-05-02T06:25:42.746Z,52.78
2023-05-02T06:26:42.775Z,51.69
2023-05-02T06:27:42.833Z,53.44
2023-05-02T06:28:42.891Z,50.44
2023-05-02T06:29:43.045Z,57.90
2023-05-02T06:30:43.009Z,48.51
2023-05-02T06:31:44.148Z,48.77
2023-05-02T06:32:42.981Z,49.47
2023-05-02T06:33:43.615Z,50.08
2023-05-02T06:34:42.938Z,50.38
2023-05-02T06:35:42.929Z,53.22
2023-05-02T06:36:42.918Z,49.87
2023-05-02T06:37:43.013Z,54.84
2023-05-02T06:38:43.713Z,52.21
2023-05-02T06:39:42.973Z,52.51
2023-05-02T06:40:43.011Z,51.57
2023-05-02T06:41:43.138Z,52.07
2023-05-02T06:42:43.145Z,50.92
2023-05-02T06:43:43.178Z,51.29
2023-05-02T06:44:43.227Z,48.71
2023-05-02T06:45:43.358Z,46.48
2023-05-02T06:46:43.390Z,48.25
2023-05-02T06:47:43.456Z,47.71
2023-05-02T06:48:43.522Z,45.83
2023-05-02T06:49:43.505Z,49.06
2023-05-02T06:50:43.583Z,51.16
2023-05-02T06:51:43.718Z,47.65
2023-05-02T06:52:43.690Z,51.17
2023-05-02T06:53:43.789Z,48.98
2023-05-02T06:54:44.796Z,51.38
2023-05-02T06:55:43.843Z,50.06
2023-05-02T06:56:43.902Z,48.43
2023-05-02T06:57:43.974Z,44.50
2023-05-02T06:58:44.021Z,47.13
2023-05-02T06:59:44.085Z,41.47
2023-05-02T07:00:44.202Z,46.52
2023-05-02T07:01:44.194Z,46.80
2023-05-02T07:02:44.279Z,47.14
2023-05-02T07:03:44.317Z,42.31
2023-05-02T07:04:44.417Z,47.24
2023-05-02T07:05:44.426Z,47.11
2023-05-02T07:06:44.564Z,48.14
2023-05-02T07:07:44.585Z,46.67
2023-05-02T07:08:44.575Z,46.91
2023-05-02T07:09:44.635Z,47.14
2023-05-02T07:10:44.683Z,45.45
2023-05-02T07:11:44.732Z,44.40
2023-05-02T07:12:44.789Z,48.49
2023-05-02T07:13:44.856Z,42.57
2023-05-02T07:14:44.905Z,45.17
2023-05-02T07:15:45.636Z,45.65
2023-05-02T07:16:45.107Z,43.41
2023-05-02T07:17:45.097Z,47.83
2023-05-02T07:18:45.101Z,46.00
2023-05-02T07:19:45.781Z,47.74
2023-05-02T07:20:45.206Z,50.64
2023-05-02T07:21:45.257Z,52.08
2023-05-02T07:22:45.320Z,66.66
2023-05-02T07:23:45.366Z,78.20
2023-05-02T07:24:45.422Z,89.58
2023-05-02T07:25:45.443Z,105.45
2023-05-02T07:26:45.483Z,117.42
2023-05-02T07:27:45.515Z,127.18
2023-05-02T07:28:45.531Z,141.74
2023-05-02T07:29:45.554Z,153.92
2023-05-02T07:30:45.700Z,168.56
2023-05-02T07:31:45.628Z,178.96
2023-05-02T07:32:45.595Z,191.88
2023-05-02T07:33:45.571Z,203.34
2023-05-02T07:34:45.577Z,217.40
2023-05-02T07:35:45.558Z,244.14
2023-05-02T07:36:45.555Z,251.33
2023-05-02T07:37:45.609Z,251.55
2023-05-02T07:38:45.566Z,250.00
2023-05-02T07:39:45.524Z,250.00
2023-05-02T07:40:45.515Z,249.99
2023-05-02T07:41:45.502Z,250.00
2023-05-02T07:42:45.515Z,249.73
2023-05-02T07:43:45.530Z,250.00
2023-05-02T07:44:45.537Z,250.00
2023-05-02T07:45:45.615Z,250.00
2023-05-02T07:46:45.700Z,250.05
2023-05-02T07:47:45.605Z,249.86
2023-05-02T07:48:46.085Z,249.88
2023-05-02T07:49:45.620Z,249.56
2023-05-02T07:50:45.649Z,250.00
2023-05-02T07:51:45.738Z,249.29
2023-05-02T07:52:45.728Z,249.66
2023-05-02T07:53:45.777Z,250.00
2023-05-02T07:54:45.839Z,250.00
2023-05-02T07:55:45.929Z,250.00
2023-05-02T07:56:45.903Z,249.53
2023-05-02T07:57:45.959Z,250.00
2023-05-02T07:58:46.048Z,250.00
2023-05-02T07:59:46.037Z,250.00
2023-05-02T08:00:46.688Z,250.00
2023-05-02T08:01:46.121Z,250.05
2023-05-02T08:02:46.384Z,250.00
2023-05-02T08:03:46.328Z,249.14
2023-05-02T08:04:46.280Z,250.00
2023-05-02T08:05:46.271Z,249.05
2023-05-02T08:06:46.333Z,249.96
2023-05-02T08:07:46.313Z,249.84
2023-05-02T08:08:46.343Z,249.67
2023-05-02T08:09:46.380Z,249.64
2023-05-02T08:10:46.400Z,250.00
2023-05-02T08:11:46.420Z,250.00
2023-05-02T08:12:46.439Z,249.01
2023-05-02T08:13:46.467Z,249.14
2023-05-02T08:14:47.164Z,249.38
2023-05-02T08:15:46.656Z,245.79
2023-05-02T08:16:46.885Z,200.09
2023-05-02T08:17:46.570Z,166.39
2023-05-02T08:18:46.579Z,124.37
2023-05-02T08:19:46.582Z,92.99
2023-05-02T08:20:46.606Z,72.76
2023-05-02T08:21:46.670Z,56.05
2023-05-02T08:22:46.665Z,41.71
2023-05-02T08:23:46.687Z,32.76
2023-05-02T08:24:46.734Z,24.21
2023-05-02T08:25:46.768Z,25.00
2023-05-02T08:26:46.809Z,24.70
2023-05-02T08:27:46.883Z,25.26
2023-05-02T08:28:46.918Z,33.90
2023-05-02T08:29:46.982Z,40.48
2023-05-02T08:30:47.017Z,47.35
2023-05-02T08:31:47.090Z,56.33
2023-05-02T08:32:47.248Z,63.90
2023-05-02T08:33:47.075Z,66.38
2023-05-02T08:34:47.730Z,71.03
2023-05-02T08:35:47.172Z,75.52
2023-05-02T08:36:47.317Z,77.77
2023-05-02T08:37:47.193Z,78.15
2023-05-02T08:38:47.199Z,81.50
2023-05-02T08:39:47.187Z,83.73
2023-05-02T08:40:47.232Z,87.10
2023-05-02T08:41:47.239Z,90.13
2023-05-02T08:42:47.287Z,94.15
2023-05-02T08:43:47.345Z,97.60
2023-05-02T08:44:47.377Z,100.33
2023-05-02T08:45:47.425Z,105.56
2023-05-02T08:46:47.536Z,106.75
2023-05-02T08:47:47.567Z,112.60
2023-05-02T08:48:47.679Z,113.73
2023-05-02T08:49:47.603Z,117.76
2023-05-02T08:50:47.616Z,121.71
2023-05-02T08:51:47.625Z,124.72
2023-05-02T08:52:48.173Z,129.62
2023-05-02T08:53:48.171Z,134.15
2023-05-02T08:54:47.681Z,136.62
2023-05-02T08:55:47.768Z,140.33
2023-05-02T08:56:47.704Z,142.63
2023-05-02T08:57:47.733Z,147.06
2023-05-02T08:58:47.729Z,150.22
2023-05-02T08:59:47.795Z,151.93
2023-05-02T09:00:47.877Z,155.51
2023-05-02T09:01:47.788Z,157.07
2023-05-02T09:02:47.842Z,159.65
2023-05-02T09:03:47.872Z,160.51
2023-05-02T09:04:47.826Z,162.86
2023-05-02T09:05:47.765Z,166.92
2023-05-02T09:06:47.850Z,167.02
2023-05-02T09:07:47.776Z,169.43
2023-05-02T09:08:48.691Z,172.32
2023-05-02T09:09:47.754Z,174.05
2023-05-02T09:10:47.759Z,176.56
2023-05-02T09:11:47.742Z,179.63
2023-05-02T09:12:47.756Z,183.28
2023-05-02T09:13:47.796Z,185.46
2023-05-02T09:14:47.695Z,189.75
2023-05-02T09:15:47.690Z,192.64
2023-05-02T09:16:47.808Z,194.89
2023-05-02T09:17:47.719Z,198.16
2023-05-02T09:18:47.659Z,199.27
2023-05-02T09:19:47.648Z,200.88
2023-05-02T09:20:47.649Z,201.85
2023-05-02T09:21:47.622Z,204.39
2023-05-02T09:22:47.617Z,208.73
2023-05-02T09:23:47.642Z,210.61
2023-05-02T09:24:47.664Z,213.22
2023-05-02T09:25:47.692Z,216.68
2023-05-02T09:26:47.728Z,217.68
2023-05-02T09:27:47.784Z,221.53
2023-05-02T09:28:47.896Z,221.97
2023-05-02T09:29:47.867Z,226.09
2023-05-02T09:30:48.208Z,228.44
2023-05-02T09:31:55.694Z,229.47
2023-05-02T09:32:48.974Z,229.65
2023-05-02T09:33:47.888Z,230.51
2023-05-02T09:34:47.932Z,232.25
2023-05-02T09:35:47.851Z,234.83
2023-05-02T09:36:47.823Z,240.43
2023-05-02T09:37:47.794Z,242.60
2023-05-02T09:38:47.774Z,244.19
2023-05-02T09:39:47.738Z,246.30
2023-05-02T09:40:47.714Z,248.77
2023-05-02T09:41:47.684Z,250.00
2023-05-02T09:42:47.676Z,249.34
2023-05-02T09:43:47.709Z,248.29
2023-05-02T09:44:47.722Z,249.68
2023-05-02T09:45:47.762Z,249.69
2023-05-02T09:46:47.776Z,249.37
2023-05-02T09:47:47.835Z,249.82
2023-05-02T09:48:47.801Z,249.56
2023-05-02T09:49:47.809Z,250.00
2023-05-02T09:50:47.824Z,249.65
2023-05-02T09:51:47.833Z,248.37
2023-05-02T09:52:47.861Z,249.57
2023-05-02T09:53:47.881Z,249.49
2023-05-02T09:54:47.968Z,247.77
2023-05-02T09:55:47.943Z,248.09
2023-05-02T09:56:47.990Z,248.51
2023-05-02T09:57:48.024Z,247.08
2023-05-02T09:58:48.134Z,245.16
2023-05-02T09:59:48.125Z,243.31
2023-05-02T10:00:48.146Z,238.93
2023-05-02T10:01:48.151Z,235.02
2023-05-02T10:02:48.225Z,231.31
2023-05-02T10:03:48.284Z,225.96
2023-05-02T10:04:48.246Z,222.56
2023-05-02T10:05:48.315Z,221.29
2023-05-02T10:06:48.384Z,220.64
2023-05-02T10:07:51.192Z,221.00
2023-05-02T10:08:48.368Z,221.22
2023-05-02T10:09:48.334Z,222.33
2023-05-02T10:10:48.316Z,224.27
2023-05-02T10:11:48.295Z,223.00
2023-05-02T10:12:48.711Z,220.12
2023-05-02T10:13:48.312Z,221.04
2023-05-02T10:14:48.214Z,221.05
2023-05-02T10:15:48.211Z,218.71
2023-05-02T10:16:48.181Z,219.67
2023-05-02T10:17:48.225Z,220.35
2023-05-02T10:18:48.127Z,218.88
2023-05-02T10:19:48.115Z,217.83
2023-05-02T10:20:48.209Z,219.43
2023-05-02T10:21:48.072Z,220.22
2023-05-02T10:22:48.092Z,220.68
2023-05-02T10:23:48.149Z,221.64
2023-05-02T10:24:48.014Z,221.86
2023-05-02T10:25:48.124Z,221.25
2023-05-02T10:26:47.973Z,220.95
2023-05-02T10:27:47.963Z,222.16
2023-05-02T10:28:47.950Z,221.50
2023-05-02T10:29:47.947Z,221.38
2023-05-02T10:30:47.931Z,221.19
2023-05-02T10:31:47.930Z,219.89
2023-05-02T10:32:47.923Z,220.06
2023-05-02T10:33:47.871Z,219.65
2023-05-02T10:34:48.714Z,220.19
2023-05-02T10:35:47.841Z,218.47
2023-05-02T10:36:47.818Z,217.96
2023-05-02T10:37:47.845Z,219.01
2023-05-02T10:38:47.790Z,217.96
2023-05-02T10:39:47.765Z,218.10
2023-05-02T10:40:47.744Z,218.07
2023-05-02T10:41:47.737Z,217.96
2023-05-02T10:42:47.711Z,216.45
2023-05-02T10:43:47.689Z,216.84
2023-05-02T10:44:47.718Z,217.41
2023-05-02T10:45:47.782Z,216.60
2023-05-02T10:46:47.835Z,215.72
2023-05-02T10:47:47.904Z,216.03
2023-05-02T10:48:47.904Z,215.18
2023-05-02T10:49:47.952Z,214.99
2023-05-02T10:50:47.998Z,214.60
2023-05-02T10:51:48.046Z,214.42
2023-05-02T10:52:48.091Z,214.57
2023-05-02T10:53:48.149Z,213.65
2023-05-02T10:54:48.714Z,213.93
2023-05-02T10:55:49.306Z,213.24
2023-05-02T10:56:48.262Z,212.15
2023-05-02T10:57:48.320Z,212.31
2023-05-02T10:58:48.727Z,212.40
2023-05-02T10:59:48.414Z,212.56
2023-05-02T11:00:49.221Z,210.99
2023-05-02T11:01:48.533Z,211.57
2023-05-02T11:02:48.627Z,211.16
2023-05-02T11:03:48.586Z,211.20
2023-05-02T11:04:48.635Z,211.05
2023-05-02T11:05:48.697Z,211.76
2023-05-02T11:06:48.789Z,211.51
2023-05-02T11:07:48.789Z,210.76
2023-05-02T11:08:48.842Z,210.08
2023-05-02T11:09:48.876Z,209.91
2023-05-02T11:10:48.955Z,208.81
2023-05-02T11:11:48.994Z,208.39
2023-05-02T11:12:49.171Z,208.09
2023-05-02T11:13:49.230Z,209.22
2023-05-02T11:14:49.152Z,207.77
2023-05-02T11:15:49.282Z,207.61
2023-05-02T11:16:49.429Z,208.06
2023-05-02T11:17:49.341Z,208.05
2023-05-02T11:18:49.405Z,205.91
2023-05-02T11:19:49.411Z,205.75
2023-05-02T11:20:49.469Z,205.90
2023-05-02T11:21:50.236Z,204.39
2023-05-02T11:22:49.567Z,204.60
2023-05-02T11:23:49.606Z,204.52
2023-05-02T11:24:49.715Z,204.86
2023-05-02T11:25:49.704Z,204.76
2023-05-02T11:26:49.781Z,203.60
2023-05-02T11:27:49.820Z,203.47
2023-05-02T11:28:49.865Z,202.48
2023-05-02T11:29:49.913Z,202.64
2023-05-02T11:30:49.977Z,204.22
2023-05-02T11:31:50.098Z,202.42
2023-05-02T11:32:50.204Z,202.04
2023-05-02T11:33:50.110Z,202.33
2023-05-02T11:34:50.234Z,201.70
2023-05-02T11:35:50.203Z,201.91
2023-05-02T11:36:50.312Z,201.96
2023-05-02T11:37:50.303Z,201.06
2023-05-02T11:38:50.336Z,200.88
2023-05-02T11:39:50.393Z,200.40
2023-05-02T11:40:50.443Z,200.22
2023-05-02T11:41:50.508Z,200.67
2023-05-02T11:42:50.585Z,199.79
2023-05-02T11:43:50.756Z,200.19
2023-05-02T11:44:50.649Z,198.80
2023-05-02T11:45:50.769Z,198.96
2023-05-02T11:46:50.724Z,199.44
2023-05-02T11:47:50.767Z,199.53
2023-05-02T11:48:50.807Z,194.84
2023-05-02T11:49:51.835Z,190.96
2023-05-02T11:50:51.021Z,196.21
2023-05-02T11:51:50.820Z,198.55
2023-05-02T11:52:50.831Z,191.00
2023-05-02T11:53:50.837Z,188.94
2023-05-02T11:54:50.827Z,183.46
2023-05-02T11:55:51.263Z,179.03
2023-05-02T11:56:50.834Z,179.15
2023-05-02T11:57:50.826Z,176.19
2023-05-02T11:58:50.828Z,177.68
2023-05-02T11:59:50.822Z,177.59
2023-05-02T12:00:50.810Z,178.17
2023-05-02T12:01:50.811Z,177.91
2023-05-02T12:02:50.873Z,178.39
2023-05-02T12:03:50.851Z,176.40
2023-05-02T12:04:50.794Z,176.96
2023-05-02T12:05:50.829Z,176.64
2023-05-02T12:06:50.844Z,177.35
2023-05-02T12:07:50.790Z,176.59
2023-05-02T12:08:50.796Z,176.57
2023-05-02T12:09:50.798Z,177.77
2023-05-02T12:10:50.814Z,176.34
2023-05-02T12:11:50.832Z,175.12
2023-05-02T12:12:50.809Z,174.64
2023-05-02T12:13:50.993Z,174.47
2023-05-02T12:14:50.831Z,173.06
2023-05-02T12:15:50.847Z,173.76
2023-05-02T12:16:50.812Z,174.46
2023-05-02T12:17:50.880Z,172.94
2023-05-02T12:18:50.900Z,173.40
2023-05-02T12:19:50.833Z,172.70
2023-05-02T12:20:50.846Z,173.64
2023-05-02T12:21:50.847Z,172.99
2023-05-02T12:22:50.851Z,172.81
2023-05-02T12:23:50.875Z,172.84
2023-05-02T12:24:50.853Z,171.94
2023-05-02T12:25:50.856Z,172.59
2023-05-02T12:26:51.848Z,172.24
2023-05-02T12:27:50.910Z,172.32
2023-05-02T12:28:50.885Z,171.56
2023-05-02T12:29:50.867Z,171.22
2023-05-02T12:30:50.855Z,171.63
2023-05-02T12:31:50.907Z,172.55
2023-05-02T12:32:50.892Z,171.24
2023-05-02T12:33:51.207Z,171.16
2023-05-02T12:34:50.873Z,168.94
2023-05-02T12:35:50.884Z,169.33
2023-05-02T12:36:50.897Z,169.08
2023-05-02T12:37:50.892Z,168.80
2023-05-02T12:38:50.893Z,167.05
2023-05-02T12:39:50.892Z,166.85
2023-05-02T12:40:50.895Z,165.80
2023-05-02T12:41:50.912Z,166.06
2023-05-02T12:42:50.918Z,164.69
2023-05-02T12:43:50.916Z,164.17